createdAt,value
2023-04-12T00:00:01.901Z,95167
2023-04-12T00:01:10.643Z,95162
2023-04-12T00:02:19.451Z,95163
2023-04-12T00:03:29.159Z,95162
2023-04-12T00:04:37.810Z,95160
2023-04-12T00:05:46.349Z,95158
2023-04-12T00:06:56.020Z,95155
2023-04-12T00:08:03.693Z,95149
2023-04-12T00:09:13.379Z,95147
2023-04-12T00:10:22.030Z,95149
2023-04-12T00:11:30.691Z,95150
2023-04-12T00:12:40.359Z,95145
2023-04-12T00:13:49.056Z,95144
2023-04-12T00:14:57.728Z,95144
2023-04-12T00:16:08.408Z,95139
2023-04-12T00:17:16.038Z,95138
2023-04-12T00:18:26.163Z,95137
2023-04-12T00:19:35.388Z,95133
2023-04-12T00:20:44.059Z,95133
2023-04-12T00:21:53.728Z,95129
2023-04-12T00:23:00.384Z,95128
2023-04-12T00:24:09.088Z,95125
2023-04-12T00:25:18.786Z,95126
2023-04-12T00:26:26.440Z,95126
2023-04-12T00:27:36.152Z,95124
2023-04-12T00:28:44.807Z,95124
2023-04-12T00:29:53.528Z,95121
2023-04-12T00:31:03.193Z,95111
2023-04-12T00:32:11.845Z,95109
2023-04-12T00:33:20.510Z,95112
2023-04-12T00:34:30.214Z,95112
2023-04-12T00:35:37.990Z,95113
2023-04-12T00:36:45.549Z,95113
2023-04-12T00:37:54.239Z,95105
2023-04-12T00:39:02.911Z,95112
2023-04-12T00:40:12.630Z,95107
2023-04-12T00:41:22.325Z,95105
2023-04-12T00:42:32.063Z,95108
2023-04-12T00:43:41.724Z,95104
2023-04-12T00:44:51.398Z,95101
2023-04-12T00:46:01.086Z,95104
2023-04-12T00:47:10.704Z,95105
2023-04-12T00:48:20.459Z,95104
2023-04-12T00:49:30.123Z,95100
2023-04-12T00:50:38.818Z,95096
2023-04-12T00:51:47.481Z,95094
2023-04-12T00:52:57.144Z,95095
2023-04-12T00:54:05.822Z,95092
2023-04-12T00:55:13.513Z,95095
2023-04-12T00:56:23.166Z,95092
2023-04-12T00:57:32.840Z,95089
2023-04-12T00:58:42.520Z,95085
2023-04-12T00:59:50.200Z,95085
2023-04-12T01:00:58.911Z,95087
2023-04-12T01:02:08.692Z,95081
2023-04-12T01:03:17.324Z,95083
2023-04-12T01:04:26.863Z,95085
2023-04-12T01:05:36.553Z,95079
2023-04-12T01:06:46.208Z,95077
2023-04-12T01:07:55.886Z,95078
2023-04-12T01:09:03.550Z,95082
2023-04-12T01:10:12.263Z,95076
2023-04-12T01:11:21.940Z,95074
2023-04-12T01:12:31.573Z,95074
2023-04-12T01:13:41.234Z,95072
2023-04-12T01:14:48.875Z,95073
2023-04-12T01:15:57.569Z,95073
2023-04-12T01:17:07.209Z,95072
2023-04-12T01:18:16.898Z,95076
2023-04-12T01:19:25.563Z,95071
2023-04-12T01:20:35.243Z,95073
2023-04-12T01:21:43.942Z,95073
2023-04-12T01:22:52.660Z,95068
2023-04-12T01:24:02.331Z,95067
2023-04-12T01:25:11.017Z,95065
2023-04-12T01:26:19.777Z,95065
2023-04-12T01:27:27.431Z,95062
2023-04-12T01:28:37.092Z,95063
2023-04-12T01:29:46.755Z,95069
2023-04-12T01:30:55.506Z,95064
2023-04-12T01:32:04.275Z,95063
2023-04-12T01:33:12.858Z,95067
2023-04-12T01:34:21.536Z,95066
2023-04-12T01:35:31.217Z,95067
2023-04-12T01:36:39.915Z,95067
2023-04-12T01:37:48.555Z,95062
2023-04-12T01:38:58.211Z,95055
2023-04-12T01:40:06.951Z,95059
2023-04-12T01:41:15.629Z,95052
2023-04-12T01:42:24.319Z,95054
2023-04-12T01:43:32.980Z,95053
2023-04-12T01:44:42.643Z,95054
2023-04-12T01:45:50.372Z,95052
2023-04-12T01:47:00.114Z,95058
2023-04-12T01:48:09.796Z,95058
2023-04-12T01:49:19.453Z,95061
2023-04-12T01:50:28.156Z,95058
2023-04-12T01:51:37.797Z,95058
2023-04-12T01:52:46.465Z,95056
2023-04-12T01:53:55.279Z,95061
2023-04-12T01:55:04.812Z,95055
2023-04-12T01:56:12.521Z,95057
2023-04-12T01:57:21.200Z,95052
2023-04-12T01:58:29.924Z,95058
2023-04-12T01:59:38.613Z,95050
2023-04-12T02:00:48.315Z,95052
2023-04-12T02:01:57.017Z,95047
2023-04-12T02:03:05.840Z,95054
2023-04-12T02:04:15.385Z,95050
2023-04-12T02:05:23.983Z,95047
2023-04-12T02:06:33.719Z,95046
2023-04-12T02:07:43.380Z,95044
2023-04-12T02:08:52.078Z,95049
2023-04-12T02:10:01.755Z,95051
2023-04-12T02:11:11.437Z,95049
2023-04-12T02:12:20.111Z,95049
2023-04-12T02:13:29.850Z,95053
2023-04-12T02:14:37.528Z,95051
2023-04-12T02:15:46.250Z,95051
2023-04-12T02:16:55.039Z,95049
2023-04-12T02:18:03.725Z,95051
2023-04-12T02:19:13.309Z,95049
2023-04-12T02:20:20.974Z,95052
2023-04-12T02:21:30.694Z,95048
2023-04-12T02:22:40.372Z,95042
2023-04-12T02:23:48.016Z,95045
2023-04-12T02:24:56.675Z,95041
2023-04-12T02:26:05.360Z,95042
2023-04-12T02:27:15.037Z,95042
2023-04-12T02:28:24.722Z,95047
2023-04-12T02:29:32.415Z,95041
2023-04-12T02:30:41.118Z,95041
2023-04-12T02:31:49.812Z,95041
2023-04-12T02:32:58.589Z,95040
2023-04-12T02:34:07.200Z,95038
2023-04-12T02:35:15.913Z,95037
2023-04-12T02:36:25.556Z,95040
2023-04-12T02:37:35.267Z,95037
2023-04-12T02:38:43.948Z,95037
2023-04-12T02:39:53.602Z,95039
2023-04-12T02:41:03.297Z,95047
2023-04-12T02:42:10.960Z,95044
2023-04-12T02:43:19.650Z,95044
2023-04-12T02:44:29.312Z,95045
2023-04-12T02:45:37.989Z,95042
2023-04-12T02:46:47.708Z,95041
2023-04-12T02:47:55.520Z,95042
2023-04-12T02:49:04.087Z,95037
2023-04-12T02:50:13.761Z,95041
2023-04-12T02:51:21.479Z,95043
2023-04-12T02:52:31.134Z,95042
2023-04-12T02:53:39.802Z,95040
2023-04-12T02:54:49.496Z,95041
2023-04-12T02:55:59.164Z,95048
2023-04-12T02:57:07.835Z,95048
2023-04-12T02:58:16.530Z,95043
2023-04-12T02:59:26.210Z,95047
2023-04-12T03:00:34.888Z,95046
2023-04-12T03:01:43.612Z,95048
2023-04-12T03:02:52.420Z,95048
2023-04-12T03:04:01.213Z,95050
2023-04-12T03:05:10.601Z,95039
2023-04-12T03:06:18.405Z,95040
2023-04-12T03:07:27.149Z,95035
2023-04-12T03:08:36.819Z,95027
2023-04-12T03:09:45.488Z,95030
2023-04-12T03:10:55.172Z,95030
2023-04-12T03:12:04.851Z,95027
2023-04-12T03:13:13.517Z,95023
2023-04-12T03:14:23.198Z,95025
2023-04-12T03:15:32.887Z,95022
2023-04-12T03:16:41.602Z,95023
2023-04-12T03:17:51.423Z,95018
2023-04-12T03:19:00.057Z,95019
2023-04-12T03:20:08.702Z,95019
2023-04-12T03:21:16.385Z,95019
2023-04-12T03:22:26.088Z,95020
2023-04-12T03:23:35.770Z,95021
2023-04-12T03:24:43.467Z,95020
2023-04-12T03:25:52.153Z,95022
2023-04-12T03:27:01.866Z,95015
2023-04-12T03:28:09.505Z,95015
2023-04-12T03:29:19.176Z,95013
2023-04-12T03:30:27.834Z,95008
2023-04-12T03:31:36.604Z,95013
2023-04-12T03:32:46.339Z,95007
2023-04-12T03:33:54.964Z,95007
2023-04-12T03:35:03.623Z,95007
2023-04-12T03:36:13.347Z,95004
2023-04-12T03:37:21.420Z,95002
2023-04-12T03:38:30.064Z,94995
2023-04-12T03:39:39.771Z,94992
2023-04-12T03:40:49.478Z,94993
2023-04-12T03:41:59.211Z,94991
2023-04-12T03:43:06.992Z,94992
2023-04-12T03:44:15.651Z,94991
2023-04-12T03:45:25.360Z,94993
2023-04-12T03:46:34.171Z,94995
2023-04-12T03:47:42.887Z,94993
2023-04-12T03:48:51.570Z,94992
2023-04-12T03:50:10.759Z,94992
2023-04-12T03:51:07.973Z,94993
2023-04-12T03:52:17.627Z,94996
2023-04-12T03:53:26.344Z,94993
2023-04-12T03:54:35.029Z,94997
2023-04-12T03:55:43.765Z,94998
2023-04-12T03:56:52.476Z,95000
2023-04-12T03:58:02.195Z,94998
2023-04-12T03:59:09.984Z,94995
2023-04-12T04:00:19.637Z,94995
2023-04-12T04:01:29.635Z,94991
2023-04-12T04:02:41.658Z,94985
2023-04-12T04:03:50.734Z,94988
2023-04-12T04:04:59.466Z,94984
2023-04-12T04:06:08.224Z,94980
2023-04-12T04:07:18.102Z,94981
2023-04-12T04:08:26.906Z,94980
2023-04-12T04:09:35.542Z,94979
2023-04-12T04:10:45.344Z,94971
2023-04-12T04:11:53.324Z,94975
2023-04-12T04:13:03.189Z,94979
2023-04-12T04:14:11.991Z,94977
2023-04-12T04:15:21.692Z,94972
2023-04-12T04:16:31.382Z,94971
2023-04-12T04:17:39.186Z,94967
2023-04-12T04:18:47.827Z,94961
2023-04-12T04:19:57.762Z,94962
2023-04-12T04:21:06.516Z,94962
2023-04-12T04:22:15.333Z,94955
2023-04-12T04:23:24.009Z,94956
2023-04-12T04:24:32.710Z,94951
2023-04-12T04:25:41.407Z,94950
2023-04-12T04:26:50.106Z,94954
2023-04-12T04:27:58.842Z,94957
2023-04-12T04:29:07.603Z,94952
2023-04-12T04:30:16.230Z,94953
2023-04-12T04:31:25.968Z,94952
2023-04-12T04:32:35.624Z,94954
2023-04-12T04:33:45.270Z,94953
2023-04-12T04:34:54.919Z,94959
2023-04-12T04:36:03.646Z,94955
2023-04-12T04:37:12.319Z,94948
2023-04-12T04:38:22.044Z,94952
2023-04-12T04:39:30.866Z,94950
2023-04-12T04:40:38.467Z,94948
2023-04-12T04:41:47.138Z,94946
2023-04-12T04:42:55.865Z,94948
2023-04-12T04:44:05.595Z,94949
2023-04-12T04:45:13.277Z,94943
2023-04-12T04:46:23.057Z,94948
2023-04-12T04:47:32.926Z,94949
2023-04-12T04:48:41.476Z,94946
2023-04-12T04:49:50.166Z,94951
2023-04-12T04:50:58.922Z,94950
2023-04-12T04:52:07.591Z,94937
2023-04-12T04:53:17.361Z,94943
2023-04-12T04:54:26.140Z,94938
2023-04-12T04:55:34.787Z,94946
2023-04-12T04:56:44.497Z,94944
2023-04-12T04:57:54.201Z,94944
2023-04-12T04:59:03.135Z,94942
2023-04-12T05:00:10.543Z,94943
2023-04-12T05:01:19.285Z,94942
2023-04-12T05:02:29.028Z,94942
2023-04-12T05:03:36.721Z,94941
2023-04-12T05:04:45.389Z,94934
2023-04-12T05:05:55.093Z,94935
2023-04-12T05:07:03.754Z,94928
2023-04-12T05:08:12.487Z,94928
2023-04-12T05:09:21.221Z,94924
2023-04-12T05:10:29.913Z,94923
2023-04-12T05:11:39.622Z,94921
2023-04-12T05:12:47.332Z,94920
2023-04-12T05:13:57.086Z,94923
2023-04-12T05:15:11.413Z,94918
2023-04-12T05:16:16.509Z,94916
2023-04-12T05:17:26.195Z,94914
2023-04-12T05:18:34.924Z,94915
2023-04-12T05:19:43.669Z,94910
2023-04-12T05:20:53.364Z,94910
2023-04-12T05:22:01.027Z,94911
2023-04-12T05:23:09.773Z,94910
2023-04-12T05:24:20.502Z,94905
2023-04-12T05:25:28.279Z,94900
2023-04-12T05:26:35.920Z,94899
2023-04-12T05:27:45.644Z,94891
2023-04-12T05:28:55.495Z,94895
2023-04-12T05:30:05.060Z,94886
2023-04-12T05:31:12.821Z,94889
2023-04-12T05:32:21.553Z,94885
2023-04-12T05:33:33.316Z,94883
2023-04-12T05:34:40.020Z,94885
2023-04-12T05:35:49.791Z,94881
2023-04-12T05:36:59.515Z,94881
2023-04-12T05:38:08.250Z,94882
2023-04-12T05:39:17.876Z,94877
2023-04-12T05:40:26.654Z,94876
2023-04-12T05:41:35.346Z,94873
2023-04-12T05:42:45.047Z,94876
2023-04-12T05:43:52.788Z,94875
2023-04-12T05:45:01.546Z,94875
2023-04-12T05:46:11.255Z,94871
2023-04-12T05:47:18.932Z,94875
2023-04-12T05:48:28.671Z,94870
2023-04-12T05:49:38.365Z,94870
2023-04-12T05:50:47.126Z,94867
2023-04-12T05:51:56.873Z,94864
2023-04-12T05:53:06.611Z,94863
2023-04-12T05:54:15.426Z,94856
2023-04-12T05:55:25.122Z,94855
2023-04-12T05:56:34.053Z,94852
2023-04-12T05:57:42.788Z,94849
2023-04-12T05:58:52.596Z,94855
2023-04-12T06:00:00.299Z,94850
2023-04-12T06:01:09.007Z,94850
2023-04-12T06:02:17.733Z,94845
2023-04-12T06:03:27.490Z,94839
2023-04-12T06:04:49.179Z,94840
2023-04-12T06:05:47.766Z,94839
2023-04-12T06:06:56.496Z,94842
2023-04-12T06:08:06.241Z,94841
2023-04-12T06:09:14.924Z,94839
2023-04-12T06:10:24.576Z,94837
2023-04-12T06:11:33.266Z,94838
2023-04-12T06:12:41.954Z,94834
2023-04-12T06:13:51.673Z,94834
2023-04-12T06:14:59.358Z,94836
2023-04-12T06:16:08.086Z,94833
2023-04-12T06:17:17.751Z,94833
2023-04-12T06:18:25.463Z,94827
2023-04-12T06:19:34.141Z,94830
2023-04-12T06:20:43.834Z,94829
2023-04-12T06:21:53.538Z,94827
2023-04-12T06:23:03.252Z,94828
2023-04-12T06:24:10.975Z,94833
2023-04-12T06:25:19.661Z,94827
2023-04-12T06:26:37.380Z,94829
2023-04-12T06:27:40.129Z,94828
2023-04-12T06:28:48.829Z,94829
2023-04-12T06:29:58.513Z,94825
2023-04-12T06:31:08.192Z,94827
2023-04-12T06:32:17.856Z,94827
2023-04-12T06:33:27.593Z,94824
2023-04-12T06:34:36.255Z,94827
2023-04-12T06:35:46.000Z,94820
2023-04-12T06:36:53.638Z,94815
2023-04-12T06:38:02.365Z,94810
2023-04-12T06:39:12.163Z,94811
2023-04-12T06:40:20.851Z,94812
2023-04-12T06:41:30.476Z,94810
2023-04-12T06:42:40.245Z,94806
2023-04-12T06:43:49.070Z,94806
2023-04-12T06:44:58.739Z,94804
2023-04-12T06:46:07.421Z,94805
2023-04-12T06:47:17.132Z,94807
2023-04-12T06:48:25.872Z,94807
2023-04-12T06:49:34.599Z,94796
2023-04-12T06:50:44.305Z,94795
2023-04-12T06:51:53.970Z,94795
2023-04-12T06:53:02.781Z,94799
2023-04-12T06:54:12.478Z,94799
2023-04-12T06:55:21.183Z,94793
2023-04-12T06:56:30.884Z,94792
2023-04-12T06:57:40.588Z,94790
2023-04-12T06:58:50.282Z,94789
2023-04-12T06:59:59.970Z,94789
2023-04-12T07:01:08.649Z,94789
2023-04-12T07:02:17.437Z,94786
2023-04-12T07:03:27.167Z,94782
2023-04-12T07:04:35.781Z,94781
2023-04-12T07:05:44.518Z,94777
2023-04-12T07:06:53.125Z,94782
2023-04-12T07:08:01.844Z,94780
2023-04-12T07:09:11.636Z,94781
2023-04-12T07:10:19.319Z,94780
2023-04-12T07:11:28.038Z,94778
2023-04-12T07:12:37.932Z,94778
2023-04-12T07:13:46.614Z,94779
2023-04-12T07:14:55.176Z,94783
2023-04-12T07:16:04.951Z,94783
2023-04-12T07:17:13.583Z,94779
2023-04-12T07:18:23.375Z,94781
2023-04-12T07:19:30.122Z,94777
2023-04-12T07:20:38.800Z,94776
2023-04-12T07:21:48.465Z,94777
2023-04-12T07:22:57.147Z,94770
2023-04-12T07:24:05.879Z,94772
2023-04-12T07:25:15.645Z,94770
2023-04-12T07:26:24.308Z,94777
2023-04-12T07:27:34.030Z,94764
2023-04-12T07:28:41.767Z,94769
2023-04-12T07:29:50.427Z,94766
2023-04-12T07:31:00.148Z,94765
2023-04-12T07:32:07.850Z,94764
2023-04-12T07:33:19.810Z,94767
2023-04-12T07:34:27.354Z,94762
2023-04-12T07:35:36.375Z,94762
2023-04-12T07:36:46.096Z,94769
2023-04-12T07:37:53.760Z,94762
2023-04-12T07:39:02.490Z,94763
2023-04-12T07:40:12.185Z,94762
2023-04-12T07:41:19.904Z,94758
2023-04-12T07:42:28.596Z,94759
2023-04-12T07:43:38.317Z,94755
2023-04-12T07:44:46.139Z,94751
2023-04-12T07:45:54.778Z,94754
2023-04-12T07:47:04.455Z,94752
2023-04-12T07:48:13.216Z,94751
2023-04-12T07:49:21.919Z,94752
2023-04-12T07:50:30.678Z,94752
2023-04-12T07:51:40.385Z,94744
2023-04-12T07:52:50.153Z,94746
2023-04-12T07:53:59.053Z,94748
2023-04-12T07:55:07.549Z,94748
2023-04-12T07:56:17.274Z,94746
2023-04-12T07:57:25.970Z,94744
2023-04-12T07:58:34.666Z,94738
2023-04-12T07:59:43.450Z,94739
2023-04-12T08:00:53.234Z,94736
2023-04-12T08:02:03.962Z,94733
2023-04-12T08:03:11.633Z,94731
2023-04-12T08:04:20.443Z,94727
2023-04-12T08:05:30.128Z,94727
2023-04-12T08:06:38.926Z,94731
2023-04-12T08:07:47.611Z,94728
2023-04-12T08:08:56.311Z,94730
2023-04-12T08:10:05.061Z,94729
2023-04-12T08:11:14.802Z,94723
2023-04-12T08:12:22.506Z,94724
2023-04-12T08:13:31.214Z,94724
2023-04-12T08:14:41.965Z,94727
2023-04-12T08:15:50.730Z,94726
2023-04-12T08:17:00.407Z,94727
2023-04-12T08:18:10.173Z,94729
2023-04-12T08:19:18.844Z,94724
2023-04-12T08:20:28.580Z,94716
2023-04-12T08:21:37.292Z,94721
2023-04-12T08:22:46.025Z,94716
2023-04-12T08:23:55.967Z,94713
2023-04-12T08:25:04.460Z,94719
2023-04-12T08:26:13.180Z,94720
2023-04-12T08:27:22.904Z,94720
2023-04-12T08:28:32.638Z,94714
2023-04-12T08:29:42.545Z,94715
2023-04-12T08:30:51.307Z,94710
2023-04-12T08:31:59.981Z,94710
2023-04-12T08:33:09.766Z,94711
2023-04-12T08:34:18.512Z,94714
2023-04-12T08:35:27.196Z,94699
2023-04-12T08:36:36.914Z,94699
2023-04-12T08:37:45.754Z,94710
2023-04-12T08:38:55.442Z,94698
2023-04-12T08:40:05.188Z,94692
2023-04-12T08:41:15.456Z,94694
2023-04-12T08:42:24.604Z,94688
2023-04-12T08:43:34.273Z,94684
2023-04-12T08:44:42.956Z,94679
2023-04-12T08:45:51.708Z,94675
2023-04-12T08:47:01.464Z,94673
2023-04-12T08:48:11.140Z,94673
2023-04-12T08:49:19.873Z,94666
2023-04-12T08:50:29.651Z,94660
2023-04-12T08:51:39.352Z,94665
2023-04-12T08:52:47.008Z,94660
2023-04-12T08:53:54.719Z,94661
2023-04-12T08:55:03.453Z,94654
2023-04-12T08:56:12.131Z,94652
2023-04-12T08:57:20.832Z,94639
2023-04-12T08:58:28.556Z,94637
2023-04-12T08:59:36.252Z,94633
2023-04-12T09:00:45.980Z,94631
2023-04-12T09:01:55.716Z,94627
2023-04-12T09:03:03.509Z,94625
2023-04-12T09:04:12.297Z,94634
2023-04-12T09:05:20.925Z,94630
2023-04-12T09:06:30.747Z,94631
2023-04-12T09:07:39.384Z,94624
2023-04-12T09:08:48.040Z,94616
2023-04-12T09:09:57.806Z,94611
2023-04-12T09:11:05.489Z,94616
2023-04-12T09:12:14.166Z,94620
2023-04-12T09:13:22.866Z,94617
2023-04-12T09:14:31.515Z,94615
2023-04-12T09:15:41.238Z,94619
2023-04-12T09:16:48.955Z,94622
2023-04-12T09:17:57.766Z,94619
2023-04-12T09:19:07.434Z,94616
2023-04-12T09:20:16.192Z,94616
2023-04-12T09:21:26.151Z,94619
2023-04-12T09:22:35.760Z,94622
2023-04-12T09:23:45.515Z,94621
2023-04-12T09:24:55.290Z,94616
2023-04-12T09:26:05.010Z,94616
2023-04-12T09:27:14.715Z,94610
2023-04-12T09:28:24.494Z,94602
2023-04-12T09:29:32.171Z,94605
2023-04-12T09:30:40.939Z,94605
2023-04-12T09:31:50.700Z,94610
2023-04-12T09:33:00.453Z,94605
2023-04-12T09:34:10.141Z,94608
2023-04-12T09:35:18.903Z,94599
2023-04-12T09:36:28.768Z,94597
2023-04-12T09:37:38.378Z,94596
2023-04-12T09:38:45.150Z,94594
2023-04-12T09:39:53.851Z,94592
2023-04-12T09:41:03.574Z,94596
2023-04-12T09:42:25.388Z,94592
2023-04-12T09:43:21.939Z,94591
2023-04-12T09:44:31.627Z,94585
2023-04-12T09:45:39.415Z,94586
2023-04-12T09:46:49.194Z,94579
2023-04-12T09:47:57.918Z,94579
2023-04-12T09:49:06.561Z,94576
2023-04-12T09:50:16.301Z,94576
2023-04-12T09:51:24.007Z,94574
2023-04-12T09:52:33.691Z,94572
2023-04-12T09:53:42.404Z,94562
2023-04-12T09:54:51.104Z,94561
2023-04-12T09:55:59.820Z,94556
2023-04-12T09:57:08.521Z,94555
2023-04-12T09:58:17.258Z,94548
2023-04-12T09:59:26.947Z,94549
2023-04-12T10:00:35.671Z,94538
2023-04-12T10:01:44.419Z,94540
2023-04-12T10:02:54.179Z,94542
2023-04-12T10:04:04.317Z,94542
2023-04-12T10:05:12.587Z,94541
2023-04-12T10:06:21.148Z,94534
2023-04-12T10:07:30.945Z,94532
2023-04-12T10:08:40.650Z,94529
2023-04-12T10:09:49.322Z,94534
2023-04-12T10:10:58.061Z,94533
2023-04-12T10:12:06.777Z,94527
2023-04-12T10:13:14.487Z,94529
2023-04-12T10:14:23.153Z,94533
2023-04-12T10:15:32.927Z,94537
2023-04-12T10:16:41.784Z,94537
2023-04-12T10:17:51.500Z,94530
2023-04-12T10:19:01.068Z,94526
2023-04-12T10:20:09.749Z,94528
2023-04-12T10:21:19.444Z,94527
2023-04-12T10:22:28.128Z,94523
2023-04-12T10:23:36.862Z,94524
2023-04-12T10:24:46.632Z,94522
2023-04-12T10:25:55.818Z,94508
2023-04-12T10:27:04.994Z,94511
2023-04-12T10:28:12.710Z,94506
2023-04-12T10:29:21.337Z,94507
2023-04-12T10:30:31.081Z,94504
2023-04-12T10:31:39.769Z,94502
2023-04-12T10:32:48.534Z,94505
2023-04-12T10:33:57.204Z,94504
2023-04-12T10:35:06.878Z,94502
2023-04-12T10:36:16.700Z,94502
2023-04-12T10:37:25.380Z,94496
2023-04-12T10:38:36.174Z,94494
2023-04-12T10:39:45.770Z,94489
2023-04-12T10:40:53.561Z,94495
2023-04-12T10:42:02.349Z,94497
2023-04-12T10:43:11.046Z,94500
2023-04-12T10:44:20.741Z,94496
2023-04-12T10:45:30.440Z,94491
2023-04-12T10:46:39.792Z,94493
2023-04-12T10:47:47.922Z,94491
2023-04-12T10:48:56.708Z,94488
2023-04-12T10:50:05.315Z,94483
2023-04-12T10:51:14.027Z,94482
2023-04-12T10:52:23.662Z,94476
2023-04-12T10:53:32.334Z,94471
2023-04-12T10:54:40.989Z,94472
2023-04-12T10:55:48.720Z,94471
2023-04-12T10:56:58.440Z,94478
2023-04-12T10:58:08.155Z,94479
2023-04-12T10:59:17.844Z,94481
2023-04-12T11:00:27.535Z,94486
2023-04-12T11:01:38.538Z,94479
2023-04-12T11:02:45.959Z,94469
2023-04-12T11:03:55.692Z,94471
2023-04-12T11:05:03.264Z,94471
2023-04-12T11:06:24.007Z,94470
2023-04-12T11:07:23.592Z,94470
2023-04-12T11:08:32.239Z,94474
2023-04-12T11:09:40.969Z,94463
2023-04-12T11:10:50.624Z,94466
2023-04-12T11:11:59.364Z,94464
2023-04-12T11:13:10.144Z,94458
2023-04-12T11:14:18.679Z,94453
2023-04-12T11:15:29.712Z,94457
2023-04-12T11:16:39.517Z,94450
2023-04-12T11:17:48.152Z,94445
2023-04-12T11:18:57.000Z,94447
2023-04-12T11:20:05.525Z,94449
2023-04-12T11:21:15.208Z,94439
2023-04-12T11:22:24.950Z,94441
2023-04-12T11:23:33.598Z,94442
2023-04-12T11:24:42.348Z,94439
2023-04-12T11:25:52.065Z,94436
2023-04-12T11:27:00.710Z,94435
2023-04-12T11:28:21.361Z,94435
2023-04-12T11:29:21.069Z,94439
2023-04-12T11:30:29.740Z,94440
2023-04-12T11:31:39.473Z,94440
2023-04-12T11:32:49.125Z,94449
2023-04-12T11:33:57.817Z,94443
2023-04-12T11:35:07.512Z,94439
2023-04-12T11:36:15.183Z,94436
2023-04-12T11:37:24.883Z,94431
2023-04-12T11:38:33.579Z,94430
2023-04-12T11:39:42.265Z,94430
2023-04-12T11:40:50.945Z,94431
2023-04-12T11:42:00.741Z,94425
2023-04-12T11:43:09.415Z,94420
2023-04-12T11:44:18.120Z,94408
2023-04-12T11:45:26.825Z,94417
2023-04-12T11:46:35.468Z,94419
2023-04-12T11:47:45.221Z,94415
2023-04-12T11:48:52.907Z,94411
2023-04-12T11:50:01.561Z,94413
2023-04-12T11:51:11.703Z,94412
2023-04-12T11:52:19.981Z,94389
2023-04-12T11:53:28.742Z,94386
2023-04-12T11:54:38.386Z,94398
2023-04-12T11:55:47.088Z,94404
2023-04-12T11:56:56.816Z,94403
2023-04-12T11:58:05.481Z,94406
2023-04-12T11:59:15.173Z,94403
2023-04-12T12:00:25.100Z,94405
2023-04-12T12:01:35.750Z,94400
2023-04-12T12:02:52.465Z,94403
2023-04-12T12:03:56.301Z,94405
2023-04-12T12:05:05.051Z,94411
2023-04-12T12:06:14.697Z,94410
2023-04-12T12:07:22.303Z,94407
2023-04-12T12:08:30.839Z,94407
2023-04-12T12:09:40.589Z,94413
2023-04-12T12:11:58.886Z,94422
2023-04-12T12:13:07.579Z,94424
2023-04-12T12:14:17.250Z,94425
2023-04-12T12:15:26.944Z,94418
2023-04-12T12:16:35.632Z,94422
2023-04-12T12:17:45.391Z,94420
2023-04-12T12:18:55.046Z,94419
2023-04-12T12:20:03.730Z,94417
2023-04-12T12:21:12.395Z,94417
2023-04-12T12:22:21.115Z,94413
2023-04-12T12:23:29.818Z,94415
2023-04-12T12:24:43.016Z,94408
2023-04-12T12:25:49.148Z,94410
2023-04-12T12:26:58.806Z,94413
2023-04-12T12:28:08.535Z,94409
2023-04-12T12:29:17.291Z,94400
2023-04-12T12:30:25.966Z,94399
2023-04-12T12:31:34.660Z,94394
2023-04-12T12:32:44.418Z,94394
2023-04-12T12:33:54.123Z,94402
2023-04-12T12:35:02.762Z,94408
2023-04-12T12:36:11.481Z,94405
2023-04-12T12:37:21.153Z,94408
2023-04-12T12:38:32.437Z,94405
2023-04-12T12:39:39.479Z,94395
2023-04-12T12:40:48.203Z,94395
2023-04-12T12:41:56.891Z,94398
2023-04-12T12:43:06.629Z,94398
2023-04-12T12:44:15.277Z,94403
2023-04-12T12:45:24.948Z,94402
2023-04-12T12:46:48.696Z,94403
2023-04-12T12:47:45.359Z,94403
2023-04-12T12:48:55.014Z,94388
2023-04-12T12:50:03.770Z,94387
2023-04-12T12:51:12.345Z,94385
2023-04-12T12:52:22.053Z,94391
2023-04-12T12:53:31.717Z,94381
2023-04-12T12:54:41.897Z,94382
2023-04-12T12:55:51.047Z,94384
2023-04-12T12:56:58.741Z,94390
2023-04-12T12:58:08.669Z,94384
2023-04-12T12:59:17.155Z,94382
2023-04-12T13:00:24.819Z,94384
2023-04-12T13:01:34.567Z,94380
2023-04-12T13:02:43.466Z,94376
2023-04-12T13:03:53.233Z,94382
2023-04-12T13:05:02.649Z,94380
2023-04-12T13:06:12.390Z,94379
2023-04-12T13:07:22.044Z,94372
2023-04-12T13:08:30.806Z,94375
2023-04-12T13:09:40.474Z,94373
2023-04-12T13:10:50.139Z,94372
2023-04-12T13:11:57.811Z,94368
2023-04-12T13:13:07.506Z,94365
2023-04-12T13:14:17.202Z,94366
2023-04-12T13:15:25.848Z,94359
2023-04-12T13:16:35.606Z,94352
2023-04-12T13:17:44.252Z,94353
2023-04-12T13:18:53.993Z,94350
2023-04-12T13:20:03.644Z,94350
2023-04-12T13:21:11.355Z,94344
2023-04-12T13:22:21.102Z,94343
2023-04-12T13:23:30.748Z,94353
2023-04-12T13:24:38.434Z,94355
2023-04-12T13:25:47.107Z,94358
2023-04-12T13:26:56.771Z,94357
2023-04-12T13:28:06.469Z,94357
2023-04-12T13:29:16.756Z,94357
2023-04-12T13:30:25.445Z,94351
2023-04-12T13:31:34.174Z,94353
2023-04-12T13:32:42.875Z,94358
2023-04-12T13:33:50.554Z,94348
2023-04-12T13:34:59.279Z,94351
2023-04-12T13:36:07.962Z,94347
2023-04-12T13:37:16.619Z,94347
2023-04-12T13:38:26.391Z,94348
2023-04-12T13:39:36.043Z,94348
2023-04-12T13:40:43.724Z,94345
2023-04-12T13:41:52.380Z,94343
2023-04-12T13:43:01.156Z,94345
2023-04-12T13:44:10.830Z,94337
2023-04-12T13:45:20.516Z,94338
2023-04-12T13:46:29.244Z,94343
2023-04-12T13:47:37.932Z,94343
2023-04-12T13:48:47.600Z,94342
2023-04-12T13:49:57.257Z,94344
2023-04-12T13:51:05.999Z,94345
2023-04-12T13:52:14.666Z,94340
2023-04-12T13:53:23.372Z,94343
2023-04-12T13:54:33.130Z,94341
2023-04-12T13:55:41.790Z,94335
2023-04-12T13:56:50.475Z,94343
2023-04-12T13:58:00.151Z,94338
2023-04-12T13:59:08.822Z,94338
2023-04-12T14:00:17.484Z,94343
2023-04-12T14:01:26.219Z,94350
2023-04-12T14:02:34.966Z,94349
2023-04-12T14:03:43.632Z,94345
2023-04-12T14:04:52.352Z,94349
2023-04-12T14:06:00.965Z,94349
2023-04-12T14:07:10.671Z,94348
2023-04-12T14:08:18.396Z,94352
2023-04-12T14:09:27.090Z,94340
2023-04-12T14:10:35.794Z,94334
2023-04-12T14:11:44.442Z,94328
2023-04-12T14:12:54.181Z,94317
2023-04-12T14:14:02.917Z,94312
2023-04-12T14:15:11.628Z,94326
2023-04-12T14:16:21.297Z,94330
2023-04-12T14:17:29.050Z,94331
2023-04-12T14:18:37.869Z,94328
2023-04-12T14:19:46.487Z,94323
2023-04-12T14:20:55.161Z,94320
2023-04-12T14:22:04.854Z,94321
2023-04-12T14:23:12.561Z,94327
2023-04-12T14:24:22.226Z,94333
2023-04-12T14:25:31.912Z,94333
2023-04-12T14:26:39.628Z,94317
2023-04-12T14:27:48.356Z,94322
2023-04-12T14:28:57.237Z,94326
2023-04-12T14:30:06.698Z,94313
2023-04-12T14:31:16.435Z,94305
2023-04-12T14:32:24.121Z,94303
2023-04-12T14:33:32.794Z,94301
2023-04-12T14:34:42.567Z,94299
2023-04-12T14:35:50.172Z,94299
2023-04-12T14:36:58.834Z,94296
2023-04-12T14:38:06.534Z,94295
2023-04-12T14:39:16.363Z,94292
2023-04-12T14:40:25.990Z,94295
2023-04-12T14:41:35.572Z,94289
2023-04-12T14:42:45.254Z,94289
2023-04-12T14:43:54.958Z,94290
2023-04-12T14:45:02.568Z,94283
2023-04-12T14:46:11.335Z,94279
2023-04-12T14:47:20.062Z,94275
2023-04-12T14:48:29.706Z,94270
2023-04-12T14:49:39.404Z,94271